sensor_id;sensor_type;location;lat;lon;timestamp;P1;durP1;ratioP1;P2;durP2;ratioP2
48881;SDS011;57063;51.406;-2.402;2023-04-25T00:00:14;3.70;;;2.20;;
48881;SDS011;57063;51.406;-2.402;2023-04-25T00:02:40;8.38;;;2.55;;
48881;SDS011;57063;51.406;-2.402;2023-04-25T00:05:06;5.90;;;2.65;;
48881;SDS011;57063;51.406;-2.402;2023-04-25T00:07:32;6.03;;;1.92;;
48881;SDS011;57063;51.406;-2.402;2023-04-25T00:09:58;14.55;;;3.05;;
48881;SDS011;57063;51.406;-2.402;2023-04-25T00:12:24;4.43;;;2.20;;
48881;SDS011;57063;51.406;-2.402;2023-04-25T00:14:49;4.07;;;2.10;;
48881;SDS011;57063;51.406;-2.402;2023-04-25T00:17:16;6.00;;;1.88;;
48881;SDS011;57063;51.406;-2.402;2023-04-25T00:19:41;5.50;;;2.45;;
48881;SDS011;57063;51.406;-2.402;2023-04-25T00:22:09;5.55;;;1.90;;
48881;SDS011;57063;51.406;-2.402;2023-04-25T00:24:35;7.60;;;2.13;;
48881;SDS011;57063;51.406;-2.402;2023-04-25T00:27:01;4.93;;;1.80;;
48881;SDS011;57063;51.406;-2.402;2023-04-25T00:29:26;11.77;;;1.85;;
48881;SDS011;57063;51.406;-2.402;2023-04-25T00:31:51;6.78;;;2.30;;
48881;SDS011;57063;51.406;-2.402;2023-04-25T00:34:16;3.05;;;1.85;;
48881;SDS011;57063;51.406;-2.402;2023-04-25T00:36:42;2.85;;;1.83;;
48881;SDS011;57063;51.406;-2.402;2023-04-25T00:39:07;4.68;;;1.88;;
48881;SDS011;57063;51.406;-2.402;2023-04-25T00:41:33;6.53;;;2.00;;
48881;SDS011;57063;51.406;-2.402;2023-04-25T00:43:58;3.45;;;1.70;;
48881;SDS011;57063;51.406;-2.402;2023-04-25T00:46:25;5.45;;;1.95;;
48881;SDS011;57063;51.406;-2.402;2023-04-25T00:48:51;4.22;;;1.50;;
48881;SDS011;57063;51.406;-2.402;2023-04-25T00:51:16;6.10;;;1.90;;
48881;SDS011;57063;51.406;-2.402;2023-04-25T00:53:45;3.95;;;1.50;;
48881;SDS011;57063;51.406;-2.402;2023-04-25T00:56:11;2.50;;;1.27;;
48881;SDS011;57063;51.406;-2.402;2023-04-25T00:58:37;2.15;;;1.40;;
48881;SDS011;57063;51.406;-2.402;2023-04-25T01:01:03;4.95;;;2.20;;
48881;SDS011;57063;51.406;-2.402;2023-04-25T01:03:30;4.22;;;1.20;;
48881;SDS011;57063;51.406;-2.402;2023-04-25T01:06:00;3.70;;;1.50;;
48881;SDS011;57063;51.406;-2.402;2023-04-25T01:08:26;6.13;;;1.73;;
48881;SDS011;57063;51.406;-2.402;2023-04-25T01:10:52;5.97;;;1.92;;
48881;SDS011;57063;51.406;-2.402;2023-04-25T01:13:17;5.53;;;1.80;;
48881;SDS011;57063;51.406;-2.402;2023-04-25T01:15:42;7.72;;;1.55;;
48881;SDS011;57063;51.406;-2.402;2023-04-25T01:18:08;5.18;;;1.95;;
48881;SDS011;57063;51.406;-2.402;2023-04-25T01:20:34;3.90;;;1.65;;
48881;SDS011;57063;51.406;-2.402;2023-04-25T01:23:03;4.85;;;1.50;;
48881;SDS011;57063;51.406;-2.402;2023-04-25T01:25:32;3.92;;;1.20;;
48881;SDS011;57063;51.406;-2.402;2023-04-25T01:27:58;4.38;;;1.30;;
48881;SDS011;57063;51.406;-2.402;2023-04-25T01:30:25;5.05;;;1.20;;
48881;SDS011;57063;51.406;-2.402;2023-04-25T01:32:52;4.68;;;1.65;;
48881;SDS011;57063;51.406;-2.402;2023-04-25T01:35:19;2.83;;;0.98;;
48881;SDS011;57063;51.406;-2.402;2023-04-25T01:37:45;3.20;;;1.83;;
48881;SDS011;57063;51.406;-2.402;2023-04-25T01:40:11;7.53;;;1.75;;
48881;SDS011;57063;51.406;-2.402;2023-04-25T01:42:38;3.78;;;1.27;;
48881;SDS011;57063;51.406;-2.402;2023-04-25T01:45:06;6.95;;;1.95;;
48881;SDS011;57063;51.406;-2.402;2023-04-25T01:47:32;6.03;;;1.25;;
48881;SDS011;57063;51.406;-2.402;2023-04-25T01:49:59;5.70;;;1.63;;
48881;SDS011;57063;51.406;-2.402;2023-04-25T01:52:25;4.15;;;1.58;;
48881;SDS011;57063;51.406;-2.402;2023-04-25T01:54:50;5.13;;;2.08;;
48881;SDS011;57063;51.406;-2.402;2023-04-25T01:57:16;4.00;;;1.50;;
48881;SDS011;57063;51.406;-2.402;2023-04-25T01:59:41;4.40;;;1.25;;
48881;SDS011;57063;51.406;-2.402;2023-04-25T02:02:08;7.15;;;1.88;;
48881;SDS011;57063;51.406;-2.402;2023-04-25T02:04:33;8.98;;;1.55;;
48881;SDS011;57063;51.406;-2.402;2023-04-25T02:06:58;7.22;;;1.60;;
48881;SDS011;57063;51.406;-2.402;2023-04-25T02:09:24;5.38;;;1.50;;
48881;SDS011;57063;51.406;-2.402;2023-04-25T02:11:49;3.13;;;1.17;;
48881;SDS011;57063;51.406;-2.402;2023-04-25T02:14:15;3.22;;;1.40;;
48881;SDS011;57063;51.406;-2.402;2023-04-25T02:16:40;3.67;;;1.50;;
48881;SDS011;57063;51.406;-2.402;2023-04-25T02:19:08;4.95;;;1.67;;
48881;SDS011;57063;51.406;-2.402;2023-04-25T02:21:34;2.15;;;1.00;;
48881;SDS011;57063;51.406;-2.402;2023-04-25T02:24:02;3.83;;;1.40;;
48881;SDS011;57063;51.406;-2.402;2023-04-25T02:26:28;6.35;;;1.63;;
48881;SDS011;57063;51.406;-2.402;2023-04-25T02:28:53;4.55;;;1.05;;
48881;SDS011;57063;51.406;-2.402;2023-04-25T02:31:19;4.32;;;1.67;;
48881;SDS011;57063;51.406;-2.402;2023-04-25T02:33:44;2.80;;;1.23;;
48881;SDS011;57063;51.406;-2.402;2023-04-25T02:36:10;5.93;;;1.42;;
48881;SDS011;57063;51.406;-2.402;2023-04-25T02:38:35;5.97;;;1.48;;
48881;SDS011;57063;51.406;-2.402;2023-04-25T02:41:00;3.92;;;1.45;;
48881;SDS011;57063;51.406;-2.402;2023-04-25T02:43:26;8.18;;;1.40;;
48881;SDS011;57063;51.406;-2.402;2023-04-25T02:45:51;4.72;;;1.40;;
48881;SDS011;57063;51.406;-2.402;2023-04-25T02:48:16;5.38;;;1.75;;
48881;SDS011;57063;51.406;-2.402;2023-04-25T02:50:42;6.50;;;1.33;;
48881;SDS011;57063;51.406;-2.402;2023-04-25T02:53:07;13.63;;;1.65;;
48881;SDS011;57063;51.406;-2.402;2023-04-25T02:55:33;5.55;;;1.55;;
48881;SDS011;57063;51.406;-2.402;2023-04-25T02:57:58;4.82;;;1.50;;
48881;SDS011;57063;51.406;-2.402;2023-04-25T03:00:24;4.57;;;1.40;;
48881;SDS011;57063;51.406;-2.402;2023-04-25T03:02:49;5.57;;;1.30;;
48881;SDS011;57063;51.406;-2.402;2023-04-25T03:05:16;7.68;;;1.90;;
48881;SDS011;57063;51.406;-2.402;2023-04-25T03:07:41;4.30;;;1.02;;
48881;SDS011;57063;51.406;-2.402;2023-04-25T03:10:08;5.63;;;1.20;;
48881;SDS011;57063;51.406;-2.402;2023-04-25T03:12:34;5.20;;;1.40;;
48881;SDS011;57063;51.406;-2.402;2023-04-25T03:14:59;5.40;;;1.40;;
48881;SDS011;57063;51.406;-2.402;2023-04-25T03:17:25;3.97;;;1.27;;
48881;SDS011;57063;51.406;-2.402;2023-04-25T03:19:50;7.07;;;1.35;;
48881;SDS011;57063;51.406;-2.402;2023-04-25T03:22:15;4.47;;;1.48;;
48881;SDS011;57063;51.406;-2.402;2023-04-25T03:24:41;10.55;;;1.55;;
48881;SDS011;57063;51.406;-2.402;2023-04-25T03:27:06;5.60;;;1.85;;
48881;SDS011;57063;51.406;-2.402;2023-04-25T03:29:31;5.57;;;1.60;;
48881;SDS011;57063;51.406;-2.402;2023-04-25T03:31:57;8.52;;;1.48;;
48881;SDS011;57063;51.406;-2.402;2023-04-25T03:34:22;4.63;;;1.23;;
48881;SDS011;57063;51.406;-2.402;2023-04-25T03:36:48;2.90;;;1.13;;
48881;SDS011;57063;51.406;-2.402;2023-04-25T03:39:14;5.78;;;2.33;;
48881;SDS011;57063;51.406;-2.402;2023-04-25T03:41:39;7.60;;;1.50;;
48881;SDS011;57063;51.406;-2.402;2023-04-25T03:44:05;3.53;;;1.08;;
48881;SDS011;57063;51.406;-2.402;2023-04-25T03:46:30;4.07;;;1.02;;
48881;SDS011;57063;51.406;-2.402;2023-04-25T03:48:56;4.40;;;1.65;;
48881;SDS011;57063;51.406;-2.402;2023-04-25T03:51:21;2.55;;;0.88;;
48881;SDS011;57063;51.406;-2.402;2023-04-25T03:53:47;5.18;;;1.40;;
48881;SDS011;57063;51.406;-2.402;2023-04-25T03:56:12;4.80;;;1.30;;
48881;SDS011;57063;51.406;-2.402;2023-04-25T03:58:38;3.40;;;1.20;;
48881;SDS011;57063;51.406;-2.402;2023-04-25T04:01:03;4.78;;;1.25;;
48881;SDS011;57063;51.406;-2.402;2023-04-25T04:03:32;6.15;;;1.27;;
48881;SDS011;57063;51.406;-2.402;2023-04-25T04:05:59;7.70;;;1.60;;
48881;SDS011;57063;51.406;-2.402;2023-04-25T04:08:24;3.58;;;1.25;;
48881;SDS011;57063;51.406;-2.402;2023-04-25T04:10:50;4.60;;;1.17;;
48881;SDS011;57063;51.406;-2.402;2023-04-25T04:13:15;3.80;;;1.17;;
48881;SDS011;57063;51.406;-2.402;2023-04-25T04:15:40;4.97;;;1.33;;
48881;SDS011;57063;51.406;-2.402;2023-04-25T04:18:06;2.90;;;1.35;;
48881;SDS011;57063;51.406;-2.402;2023-04-25T04:20:31;4.00;;;1.23;;
48881;SDS011;57063;51.406;-2.402;2023-04-25T04:22:57;4.05;;;1.40;;
48881;SDS011;57063;51.406;-2.402;2023-04-25T04:25:22;2.83;;;1.00;;
48881;SDS011;57063;51.406;-2.402;2023-04-25T04:27:47;3.35;;;1.17;;
48881;SDS011;57063;51.406;-2.402;2023-04-25T04:30:13;6.65;;;1.27;;
48881;SDS011;57063;51.406;-2.402;2023-04-25T04:32:38;5.78;;;1.42;;
48881;SDS011;57063;51.406;-2.402;2023-04-25T04:35:04;3.75;;;1.55;;
48881;SDS011;57063;51.406;-2.402;2023-04-25T04:37:31;4.70;;;1.70;;
48881;SDS011;57063;51.406;-2.402;2023-04-25T04:39:57;6.75;;;1.20;;
48881;SDS011;57063;51.406;-2.402;2023-04-25T04:42:23;2.50;;;1.08;;
48881;SDS011;57063;51.406;-2.402;2023-04-25T04:44:50;3.38;;;1.30;;
48881;SDS011;57063;51.406;-2.402;2023-04-25T04:47:17;3.70;;;1.23;;
48881;SDS011;57063;51.406;-2.402;2023-04-25T04:49:42;6.03;;;1.67;;
48881;SDS011;57063;51.406;-2.402;2023-04-25T04:52:07;5.63;;;1.30;;
48881;SDS011;57063;51.406;-2.402;2023-04-25T04:54:33;4.65;;;1.02;;
48881;SDS011;57063;51.406;-2.402;2023-04-25T04:57:00;4.80;;;1.35;;
48881;SDS011;57063;51.406;-2.402;2023-04-25T04:59:25;10.38;;;2.17;;
48881;SDS011;57063;51.406;-2.402;2023-04-25T05:01:52;5.45;;;1.10;;
48881;SDS011;57063;51.406;-2.402;2023-04-25T05:04:17;3.53;;;0.98;;
48881;SDS011;57063;51.406;-2.402;2023-04-25T05:06:43;3.10;;;1.08;;
48881;SDS011;57063;51.406;-2.402;2023-04-25T05:09:09;4.25;;;1.17;;
48881;SDS011;57063;51.406;-2.402;2023-04-25T05:11:34;2.92;;;1.05;;
48881;SDS011;57063;51.406;-2.402;2023-04-25T05:14:00;5.45;;;1.35;;
48881;SDS011;57063;51.406;-2.402;2023-04-25T05:16:25;7.28;;;1.38;;
48881;SDS011;57063;51.406;-2.402;2023-04-25T05:18:50;7.20;;;1.15;;
48881;SDS011;57063;51.406;-2.402;2023-04-25T05:21:16;6.57;;;1.23;;
48881;SDS011;57063;51.406;-2.402;2023-04-25T05:23:41;4.20;;;1.23;;
48881;SDS011;57063;51.406;-2.402;2023-04-25T05:26:06;3.03;;;1.00;;
48881;SDS011;57063;51.406;-2.402;2023-04-25T05:28:38;5.47;;;1.98;;
48881;SDS011;57063;51.406;-2.402;2023-04-25T05:31:04;5.63;;;0.93;;
48881;SDS011;57063;51.406;-2.402;2023-04-25T05:33:30;5.13;;;1.25;;
48881;SDS011;57063;51.406;-2.402;2023-04-25T05:35:55;5.55;;;1.63;;
48881;SDS011;57063;51.406;-2.402;2023-04-25T05:38:20;4.03;;;1.35;;
48881;SDS011;57063;51.406;-2.402;2023-04-25T05:40:46;9.50;;;0.90;;
48881;SDS011;57063;51.406;-2.402;2023-04-25T05:43:11;19.25;;;1.30;;
48881;SDS011;57063;51.406;-2.402;2023-04-25T05:45:36;4.70;;;1.60;;
48881;SDS011;57063;51.406;-2.402;2023-04-25T05:48:02;7.32;;;1.40;;
48881;SDS011;57063;51.406;-2.402;2023-04-25T05:50:27;4.30;;;1.10;;
48881;SDS011;57063;51.406;-2.402;2023-04-25T05:52:53;7.63;;;1.95;;
48881;SDS011;57063;51.406;-2.402;2023-04-25T05:55:18;8.38;;;1.65;;
48881;SDS011;57063;51.406;-2.402;2023-04-25T05:57:44;6.88;;;1.42;;
48881;SDS011;57063;51.406;-2.402;2023-04-25T06:00:11;7.97;;;1.55;;
48881;SDS011;57063;51.406;-2.402;2023-04-25T06:02:37;9.82;;;1.67;;
48881;SDS011;57063;51.406;-2.402;2023-04-25T06:05:03;3.90;;;1.27;;
48881;SDS011;57063;51.406;-2.402;2023-04-25T06:07:29;15.35;;;2.40;;
48881;SDS011;57063;51.406;-2.402;2023-04-25T06:09:55;4.53;;;1.30;;
48881;SDS011;57063;51.406;-2.402;2023-04-25T06:12:20;12.27;;;2.13;;
48881;SDS011;57063;51.406;-2.402;2023-04-25T06:14:45;5.25;;;1.27;;
48881;SDS011;57063;51.406;-2.402;2023-04-25T06:17:11;12.02;;;1.33;;
48881;SDS011;57063;51.406;-2.402;2023-04-25T06:19:36;6.95;;;1.58;;
48881;SDS011;57063;51.406;-2.402;2023-04-25T06:22:02;12.43;;;2.10;;
48881;SDS011;57063;51.406;-2.402;2023-04-25T06:24:27;5.95;;;1.55;;
48881;SDS011;57063;51.406;-2.402;2023-04-25T06:26:53;10.13;;;1.70;;
48881;SDS011;57063;51.406;-2.402;2023-04-25T06:29:19;8.05;;;2.13;;
48881;SDS011;57063;51.406;-2.402;2023-04-25T06:31:44;11.52;;;1.30;;
48881;SDS011;57063;51.406;-2.402;2023-04-25T06:34:10;5.97;;;1.25;;
48881;SDS011;57063;51.406;-2.402;2023-04-25T06:36:35;13.60;;;1.95;;
48881;SDS011;57063;51.406;-2.402;2023-04-25T06:39:01;10.43;;;1.90;;
48881;SDS011;57063;51.406;-2.402;2023-04-25T06:41:27;7.20;;;1.58;;
48881;SDS011;57063;51.406;-2.402;2023-04-25T06:43:52;7.32;;;2.08;;
48881;SDS011;57063;51.406;-2.402;2023-04-25T06:46:17;9.25;;;1.50;;
48881;SDS011;57063;51.406;-2.402;2023-04-25T06:48:43;5.97;;;1.58;;
48881;SDS011;57063;51.406;-2.402;2023-04-25T06:51:08;6.55;;;1.73;;
48881;SDS011;57063;51.406;-2.402;2023-04-25T06:53:33;8.63;;;1.70;;
48881;SDS011;57063;51.406;-2.402;2023-04-25T06:55:59;5.60;;;1.35;;
48881;SDS011;57063;51.406;-2.402;2023-04-25T06:58:24;6.38;;;1.52;;
48881;SDS011;57063;51.406;-2.402;2023-04-25T07:00:51;5.88;;;1.67;;
48881;SDS011;57063;51.406;-2.402;2023-04-25T07:03:16;3.83;;;1.20;;
48881;SDS011;57063;51.406;-2.402;2023-04-25T07:05:41;4.63;;;1.17;;
48881;SDS011;57063;51.406;-2.402;2023-04-25T07:08:07;6.03;;;1.75;;
48881;SDS011;57063;51.406;-2.402;2023-04-25T07:10:32;6.32;;;1.40;;
48881;SDS011;57063;51.406;-2.402;2023-04-25T07:12:57;6.47;;;1.20;;
48881;SDS011;57063;51.406;-2.402;2023-04-25T07:15:23;3.92;;;1.05;;
48881;SDS011;57063;51.406;-2.402;2023-04-25T07:17:48;3.42;;;1.00;;
48881;SDS011;57063;51.406;-2.402;2023-04-25T07:20:14;6.68;;;1.60;;
48881;SDS011;57063;51.406;-2.402;2023-04-25T07:22:39;5.55;;;1.40;;
48881;SDS011;57063;51.406;-2.402;2023-04-25T07:25:04;5.28;;;1.60;;
48881;SDS011;57063;51.406;-2.402;2023-04-25T07:27:31;3.80;;;0.95;;
48881;SDS011;57063;51.406;-2.402;2023-04-25T07:29:56;5.78;;;1.50;;
48881;SDS011;57063;51.406;-2.402;2023-04-25T07:32:22;3.78;;;1.13;;
48881;SDS011;57063;51.406;-2.402;2023-04-25T07:34:47;3.30;;;1.05;;
48881;SDS011;57063;51.406;-2.402;2023-04-25T07:37:13;7.88;;;1.35;;
48881;SDS011;57063;51.406;-2.402;2023-04-25T07:39:39;3.47;;;0.85;;
48881;SDS011;57063;51.406;-2.402;2023-04-25T07:42:05;4.95;;;0.93;;
48881;SDS011;57063;51.406;-2.402;2023-04-25T07:44:33;6.65;;;1.35;;
48881;SDS011;57063;51.406;-2.402;2023-04-25T07:47:04;4.95;;;0.90;;
48881;SDS011;57063;51.406;-2.402;2023-04-25T07:49:32;6.68;;;1.35;;
48881;SDS011;57063;51.406;-2.402;2023-04-25T07:52:01;5.03;;;1.05;;
48881;SDS011;57063;51.406;-2.402;2023-04-25T07:54:27;2.60;;;0.93;;
48881;SDS011;57063;51.406;-2.402;2023-04-25T07:56:52;3.55;;;0.93;;
48881;SDS011;57063;51.406;-2.402;2023-04-25T07:59:18;2.88;;;0.90;;
48881;SDS011;57063;51.406;-2.402;2023-04-25T08:01:44;5.18;;;0.88;;
48881;SDS011;57063;51.406;-2.402;2023-04-25T08:04:09;5.07;;;1.02;;
48881;SDS011;57063;51.406;-2.402;2023-04-25T08:06:35;4.88;;;1.10;;
48881;SDS011;57063;51.406;-2.402;2023-04-25T08:09:01;2.20;;;0.63;;
48881;SDS011;57063;51.406;-2.402;2023-04-25T08:11:26;3.78;;;0.98;;
48881;SDS011;57063;51.406;-2.402;2023-04-25T08:13:51;5.70;;;0.90;;
48881;SDS011;57063;51.406;-2.402;2023-04-25T08:16:17;3.83;;;0.90;;
48881;SDS011;57063;51.406;-2.402;2023-04-25T08:18:42;4.07;;;1.00;;
48881;SDS011;57063;51.406;-2.402;2023-04-25T08:21:08;3.65;;;0.88;;
48881;SDS011;57063;51.406;-2.402;2023-04-25T08:23:36;2.92;;;0.80;;
48881;SDS011;57063;51.406;-2.402;2023-04-25T08:26:02;3.13;;;0.90;;
48881;SDS011;57063;51.406;-2.402;2023-04-25T08:28:27;3.13;;;0.93;;
48881;SDS011;57063;51.406;-2.402;2023-04-25T08:30:53;8.50;;;1.27;;
48881;SDS011;57063;51.406;-2.402;2023-04-25T08:33:18;2.63;;;0.70;;
48881;SDS011;57063;51.406;-2.402;2023-04-25T08:35:44;2.85;;;0.75;;
48881;SDS011;57063;51.406;-2.402;2023-04-25T08:38:10;2.58;;;0.65;;
48881;SDS011;57063;51.406;-2.402;2023-04-25T08:40:37;1.45;;;0.73;;
48881;SDS011;57063;51.406;-2.402;2023-04-25T08:43:03;2.30;;;0.73;;
48881;SDS011;57063;51.406;-2.402;2023-04-25T08:45:36;2.92;;;0.65;;
48881;SDS011;57063;51.406;-2.402;2023-04-25T08:48:12;1.42;;;0.40;;
48881;SDS011;57063;51.406;-2.402;2023-04-25T08:50:39;3.60;;;0.87;;
48881;SDS011;57063;51.406;-2.402;2023-04-25T08:53:08;1.63;;;0.60;;
48881;SDS011;57063;51.406;-2.402;2023-04-25T08:55:36;2.78;;;0.55;;
48881;SDS011;57063;51.406;-2.402;2023-04-25T08:58:06;3.53;;;0.55;;
48881;SDS011;57063;51.406;-2.402;2023-04-25T09:00:32;3.20;;;0.63;;
48881;SDS011;57063;51.406;-2.402;2023-04-25T09:02:58;3.03;;;1.27;;
48881;SDS011;57063;51.406;-2.402;2023-04-25T09:05:23;3.85;;;1.25;;
48881;SDS011;57063;51.406;-2.402;2023-04-25T09:07:49;5.43;;;0.80;;
48881;SDS011;57063;51.406;-2.402;2023-04-25T09:10:15;3.35;;;0.40;;
48881;SDS011;57063;51.406;-2.402;2023-04-25T09:12:40;4.38;;;0.73;;
48881;SDS011;57063;51.406;-2.402;2023-04-25T09:15:07;3.33;;;0.63;;
48881;SDS011;57063;51.406;-2.402;2023-04-25T09:17:34;3.17;;;0.90;;
48881;SDS011;57063;51.406;-2.402;2023-04-25T09:20:09;5.95;;;0.80;;
48881;SDS011;57063;51.406;-2.402;2023-04-25T09:22:37;3.63;;;0.75;;
48881;SDS011;57063;51.406;-2.402;2023-04-25T09:25:12;4.40;;;0.70;;
48881;SDS011;57063;51.406;-2.402;2023-04-25T09:27:49;4.93;;;0.57;;
48881;SDS011;57063;51.406;-2.402;2023-04-25T09:30:19;5.43;;;0.80;;
48881;SDS011;57063;51.406;-2.402;2023-04-25T09:33:03;3.00;;;0.57;;
48881;SDS011;57063;51.406;-2.402;2023-04-25T09:35:32;3.72;;;0.80;;
48881;SDS011;57063;51.406;-2.402;2023-04-25T09:38:07;8.85;;;0.90;;
48881;SDS011;57063;51.406;-2.402;2023-04-25T09:40:40;6.60;;;0.75;;
48881;SDS011;57063;51.406;-2.402;2023-04-25T09:43:10;3.22;;;0.55;;
48881;SDS011;57063;51.406;-2.402;2023-04-25T09:45:43;6.80;;;0.73;;
48881;SDS011;57063;51.406;-2.402;2023-04-25T09:48:10;4.30;;;1.10;;
48881;SDS011;57063;51.406;-2.402;2023-04-25T09:50:37;2.85;;;0.68;;
48881;SDS011;57063;51.406;-2.402;2023-04-25T09:53:04;3.63;;;0.68;;
48881;SDS011;57063;51.406;-2.402;2023-04-25T09:55:31;4.05;;;0.52;;
48881;SDS011;57063;51.406;-2.402;2023-04-25T09:57:57;1.55;;;0.47;;
48881;SDS011;57063;51.406;-2.402;2023-04-25T10:00:28;3.40;;;0.73;;
48881;SDS011;57063;51.406;-2.402;2023-04-25T10:02:55;2.00;;;0.50;;
48881;SDS011;57063;51.406;-2.402;2023-04-25T10:05:22;3.42;;;0.75;;
48881;SDS011;57063;51.406;-2.402;2023-04-25T10:07:49;3.85;;;0.60;;
48881;SDS011;57063;51.406;-2.402;2023-04-25T10:10:16;5.75;;;0.70;;
48881;SDS011;57063;51.406;-2.402;2023-04-25T10:12:43;3.83;;;0.65;;
48881;SDS011;57063;51.406;-2.402;2023-04-25T10:15:09;1.50;;;0.45;;
48881;SDS011;57063;51.406;-2.402;2023-04-25T10:17:36;3.78;;;0.47;;
48881;SDS011;57063;51.406;-2.402;2023-04-25T10:20:02;4.82;;;0.52;;
48881;SDS011;57063;51.406;-2.402;2023-04-25T10:22:34;3.13;;;0.90;;
48881;SDS011;57063;51.406;-2.402;2023-04-25T10:25:01;1.80;;;0.50;;
48881;SDS011;57063;51.406;-2.402;2023-04-25T10:27:29;2.50;;;0.60;;
48881;SDS011;57063;51.406;-2.402;2023-04-25T10:30:02;3.78;;;0.40;;
48881;SDS011;57063;51.406;-2.402;2023-04-25T10:32:31;4.82;;;0.88;;
48881;SDS011;57063;51.406;-2.402;2023-04-25T10:37:38;4.80;;;0.80;;
48881;SDS011;57063;51.406;-2.402;2023-04-25T10:40:22;3.45;;;0.80;;
48881;SDS011;57063;51.406;-2.402;2023-04-25T10:42:48;2.95;;;0.93;;
48881;SDS011;57063;51.406;-2.402;2023-04-25T10:45:13;5.47;;;0.90;;
48881;SDS011;57063;51.406;-2.402;2023-04-25T10:47:45;2.05;;;0.70;;
48881;SDS011;57063;51.406;-2.402;2023-04-25T10:50:11;5.47;;;0.88;;
48881;SDS011;57063;51.406;-2.402;2023-04-25T10:52:40;3.75;;;0.52;;
48881;SDS011;57063;51.406;-2.402;2023-04-25T10:55:06;2.85;;;0.80;;
48881;SDS011;57063;51.406;-2.402;2023-04-25T11:00:15;1.70;;;0.63;;
48881;SDS011;57063;51.406;-2.402;2023-04-25T11:02:48;6.43;;;1.30;;
48881;SDS011;57063;51.406;-2.402;2023-04-25T11:05:20;8.45;;;0.60;;
48881;SDS011;57063;51.406;-2.402;2023-04-25T11:07:51;2.33;;;0.50;;
48881;SDS011;57063;51.406;-2.402;2023-04-25T11:12:45;3.17;;;0.60;;
48881;SDS011;57063;51.406;-2.402;2023-04-25T11:15:12;1.67;;;0.40;;
48881;SDS011;57063;51.406;-2.402;2023-04-25T11:17:38;2.60;;;0.43;;
48881;SDS011;57063;51.406;-2.402;2023-04-25T11:20:05;2.35;;;0.55;;
48881;SDS011;57063;51.406;-2.402;2023-04-25T11:22:34;2.92;;;0.52;;
48881;SDS011;57063;51.406;-2.402;2023-04-25T11:25:04;2.45;;;0.85;;
48881;SDS011;57063;51.406;-2.402;2023-04-25T11:27:30;17.70;;;1.67;;
48881;SDS011;57063;51.406;-2.402;2023-04-25T11:29:55;1.38;;;0.40;;
48881;SDS011;57063;51.406;-2.402;2023-04-25T11:32:21;2.15;;;0.50;;
48881;SDS011;57063;51.406;-2.402;2023-04-25T11:34:48;3.65;;;1.48;;
48881;SDS011;57063;51.406;-2.402;2023-04-25T11:37:14;2.33;;;0.50;;
48881;SDS011;57063;51.406;-2.402;2023-04-25T11:39:43;1.92;;;0.50;;
48881;SDS011;57063;51.406;-2.402;2023-04-25T11:42:10;1.08;;;0.32;;
48881;SDS011;57063;51.406;-2.402;2023-04-25T11:44:37;1.75;;;0.60;;
48881;SDS011;57063;51.406;-2.402;2023-04-25T11:47:03;3.97;;;0.70;;
48881;SDS011;57063;51.406;-2.402;2023-04-25T11:49:31;1.95;;;0.38;;
48881;SDS011;57063;51.406;-2.402;2023-04-25T11:51:57;2.53;;;0.52;;
48881;SDS011;57063;51.406;-2.402;2023-04-25T11:54:22;3.33;;;0.65;;
48881;SDS011;57063;51.406;-2.402;2023-04-25T11:56:48;3.58;;;0.70;;
48881;SDS011;57063;51.406;-2.402;2023-04-25T11:59:13;2.42;;;0.70;;
48881;SDS011;57063;51.406;-2.402;2023-04-25T12:01:40;2.80;;;1.10;;
48881;SDS011;57063;51.406;-2.402;2023-04-25T12:06:46;3.70;;;0.82;;
48881;SDS011;57063;51.406;-2.402;2023-04-25T12:09:13;3.78;;;0.60;;
48881;SDS011;57063;51.406;-2.402;2023-04-25T12:14:19;4.10;;;0.75;;
48881;SDS011;57063;51.406;-2.402;2023-04-25T12:16:48;7.28;;;1.30;;
48881;SDS011;57063;51.406;-2.402;2023-04-25T12:19:14;8.27;;;1.15;;
48881;SDS011;57063;51.406;-2.402;2023-04-25T12:21:40;12.82;;;1.75;;
48881;SDS011;57063;51.406;-2.402;2023-04-25T12:24:13;17.20;;;1.75;;
48881;SDS011;57063;51.406;-2.402;2023-04-25T12:26:50;9.60;;;1.77;;
48881;SDS011;57063;51.406;-2.402;2023-04-25T12:29:17;14.95;;;1.40;;
48881;SDS011;57063;51.406;-2.402;2023-04-25T12:31:43;10.45;;;2.20;;
48881;SDS011;57063;51.406;-2.402;2023-04-25T12:34:10;10.35;;;2.17;;
48881;SDS011;57063;51.406;-2.402;2023-04-25T12:36:35;13.85;;;3.13;;
48881;SDS011;57063;51.406;-2.402;2023-04-25T12:39:00;13.27;;;3.22;;
48881;SDS011;57063;51.406;-2.402;2023-04-25T12:41:29;13.95;;;4.20;;
48881;SDS011;57063;51.406;-2.402;2023-04-25T12:43:54;16.20;;;4.40;;
48881;SDS011;57063;51.406;-2.402;2023-04-25T12:46:20;12.80;;;3.65;;
48881;SDS011;57063;51.406;-2.402;2023-04-25T12:48:45;11.68;;;3.97;;
48881;SDS011;57063;51.406;-2.402;2023-04-25T12:51:11;17.30;;;3.75;;
48881;SDS011;57063;51.406;-2.402;2023-04-25T12:53:36;8.52;;;3.38;;
48881;SDS011;57063;51.406;-2.402;2023-04-25T12:56:02;11.38;;;3.47;;
48881;SDS011;57063;51.406;-2.402;2023-04-25T12:58:28;15.88;;;5.18;;
48881;SDS011;57063;51.406;-2.402;2023-04-25T13:00:53;10.20;;;3.38;;
48881;SDS011;57063;51.406;-2.402;2023-04-25T13:03:19;13.55;;;3.42;;
48881;SDS011;57063;51.406;-2.402;2023-04-25T13:05:44;24.02;;;2.50;;
48881;SDS011;57063;51.406;-2.402;2023-04-25T13:08:10;8.30;;;2.65;;
48881;SDS011;57063;51.406;-2.402;2023-04-25T13:10:36;7.88;;;2.45;;
48881;SDS011;57063;51.406;-2.402;2023-04-25T13:13:03;6.57;;;1.92;;
48881;SDS011;57063;51.406;-2.402;2023-04-25T13:15:28;6.00;;;1.80;;
48881;SDS011;57063;51.406;-2.402;2023-04-25T13:17:54;7.03;;;2.10;;
48881;SDS011;57063;51.406;-2.402;2023-04-25T13:20:20;4.35;;;1.60;;
48881;SDS011;57063;51.406;-2.402;2023-04-25T13:22:47;7.55;;;2.10;;
48881;SDS011;57063;51.406;-2.402;2023-04-25T13:25:12;7.57;;;1.80;;
48881;SDS011;57063;51.406;-2.402;2023-04-25T13:27:38;9.98;;;2.10;;
48881;SDS011;57063;51.406;-2.402;2023-04-25T13:30:05;9.68;;;1.65;;
48881;SDS011;57063;51.406;-2.402;2023-04-25T13:32:34;11.55;;;2.22;;
48881;SDS011;57063;51.406;-2.402;2023-04-25T13:35:04;18.60;;;3.58;;
48881;SDS011;57063;51.406;-2.402;2023-04-25T13:37:30;11.65;;;1.50;;
48881;SDS011;57063;51.406;-2.402;2023-04-25T13:39:58;6.82;;;2.35;;
48881;SDS011;57063;51.406;-2.402;2023-04-25T13:42:25;8.98;;;2.50;;
48881;SDS011;57063;51.406;-2.402;2023-04-25T13:44:50;16.25;;;2.10;;
48881;SDS011;57063;51.406;-2.402;2023-04-25T13:47:16;12.48;;;2.88;;
48881;SDS011;57063;51.406;-2.402;2023-04-25T13:49:41;15.43;;;1.92;;
48881;SDS011;57063;51.406;-2.402;2023-04-25T13:52:06;10.02;;;1.80;;
48881;SDS011;57063;51.406;-2.402;2023-04-25T13:54:32;10.25;;;1.58;;
48881;SDS011;57063;51.406;-2.402;2023-04-25T13:56:58;14.27;;;2.10;;
48881;SDS011;57063;51.406;-2.402;2023-04-25T13:59:24;17.90;;;3.03;;
48881;SDS011;57063;51.406;-2.402;2023-04-25T14:01:50;9.48;;;2.03;;
48881;SDS011;57063;51.406;-2.402;2023-04-25T14:04:16;11.05;;;1.85;;
48881;SDS011;57063;51.406;-2.402;2023-04-25T14:06:42;8.13;;;1.20;;
48881;SDS011;57063;51.406;-2.402;2023-04-25T14:09:07;12.50;;;2.53;;
48881;SDS011;57063;51.406;-2.402;2023-04-25T14:11:36;16.27;;;1.95;;
48881;SDS011;57063;51.406;-2.402;2023-04-25T14:14:01;6.28;;;1.60;;
48881;SDS011;57063;51.406;-2.402;2023-04-25T14:16:27;9.15;;;1.85;;
48881;SDS011;57063;51.406;-2.402;2023-04-25T14:18:53;11.35;;;1.50;;
48881;SDS011;57063;51.406;-2.402;2023-04-25T14:21:19;10.85;;;1.42;;
48881;SDS011;57063;51.406;-2.402;2023-04-25T14:23:45;8.38;;;1.70;;
48881;SDS011;57063;51.406;-2.402;2023-04-25T14:26:11;5.78;;;1.02;;
48881;SDS011;57063;51.406;-2.402;2023-04-25T14:28:37;5.68;;;1.40;;
48881;SDS011;57063;51.406;-2.402;2023-04-25T14:31:03;7.82;;;1.25;;
48881;SDS011;57063;51.406;-2.402;2023-04-25T14:33:29;9.07;;;1.50;;
48881;SDS011;57063;51.406;-2.402;2023-04-25T14:35:55;7.43;;;1.27;;
48881;SDS011;57063;51.406;-2.402;2023-04-25T14:38:21;7.05;;;1.52;;
48881;SDS011;57063;51.406;-2.402;2023-04-25T14:40:48;6.13;;;1.40;;